Terminal Aerodrome Forecast
Issued by NWS

Home | Current Version | Previous Version | Text Only | Print | Product List | Glossary On
Versions: 1 2 3 4 5 6 7 8 9 10 11 12 13
000
FTUS44 KLIX 301700 RRA
TAFMSY
TAF
KMSY 301759Z 3018/3118 17013KT 6SM -SHRA OVC025
      TEMPO 3018/3022 VRB15G25KT 2SM TSRA BKN020CB
     FM310030 17010KT P6SM BKN050
     FM310900 14005KT P6SM BKN100
     FM311700 14009KT P6SM BKN250=

USA.gov is the U.S. government's official web portal to all federal, state and local government web resources and services.